Terminal Aerodrome Forecast
Issued by NWS Green Bay, WI

Home | Current Version | Previous Version | Graphics & Text | Print | Product List | Glossary On
Versions: 1 2 3 4 5 6 7 8 9 10 11 12 13 14 15 16 17 18 19 20 21 22 23 24 25 26 27 28 29 30 31 32 33 34 35 36 37 38 39 40 41 42 43 44 45 46 47 48 49 50
000
FTUS43 KGRB 172102 AAA
TAFGRB
TAF AMD
KGRB 172102Z 1721/1818 33005KT 3/4SM BR OVC002
      TEMPO 1721/1801 1 1/2SM -DZ BR OVC005
     FM180100 32005KT 3SM BR OVC007
     FM180500 27004KT 5SM BR SCT007 OVC015
      TEMPO 1805/1809 2SM BR SCT002 OVC007
     FM180900 26005KT 3SM BR SCT015 OVC025
     FM181400 23008KT 6SM BR BKN035 OVC070=

USA.gov is the U.S. government's official web portal to all federal, state and local government web resources and services.